BAW53M EGLL-MYNN
Flight info
| Callsign | BAW53M |
|---|---|
| Flight time | N/A |
| Altitude | 26000 |
| Route | CPT L9 BUCGO/N0427F240 L9 ARPAK/N0478F340 DCT FELCA DCT FADZU DCT OFSOX/N0476F360 DCT BANBA DCT DOLIP DCT LIMRI/M083F370 NATF TUDEP/N0481F380 DCT EBONY DCT BOS DCT HTO DCT ATR/N0474F400 DCT TRPOD DCT CRPLR DCT KOOKI DCT SKARP DCT IDOLS DCT RROOO Y323 CARPX Y307 CASPR AR3 NUCAR Y307 HANKX DCT KURAY |
| Aircraft | B772/H-SDE1E3FGHIJ3J5J6M1M2P2RWXYZ/LB1D1 |
Departure
| Time | 2026-05-05 09:32 |
|---|---|
| Airport | London Heathrow Airport (EGLL) |
Arrival
| Time | N/A |
|---|---|
| Airport | Lynden Pindling International Airport (MYNN) |
| Time | Latitude | Longitude | Altitude | Speed | Heading |
|---|---|---|---|---|---|
| 2026-05-05 08:45 | 51.47391 | -0.46591 | 98 ft | 0 kts | 120° |
| 2026-05-05 09:16 | 51.47398 | -0.46609 | 98 ft | 2 kts | 120° |
| 2026-05-05 09:17 | 51.47405 | -0.46630 | 98 ft | 2 kts | 120° |
| 2026-05-05 09:17 | 51.47412 | -0.46651 | 98 ft | 2 kts | 114° |
| 2026-05-05 09:17 | 51.47417 | -0.46674 | 98 ft | 2 kts | 105° |
| 2026-05-05 09:17 | 51.47421 | -0.46696 | 98 ft | 2 kts | 108° |
| 2026-05-05 09:18 | 51.47425 | -0.46720 | 98 ft | 2 kts | 109° |
| 2026-05-05 09:18 | 51.47433 | -0.46740 | 98 ft | 2 kts | 139° |
| 2026-05-05 09:18 | 51.47446 | -0.46752 | 98 ft | 2 kts | 165° |
| 2026-05-05 09:18 | 51.47459 | -0.46756 | 98 ft | 1 kts | 172° |
| 2026-05-05 09:19 | 51.47463 | -0.46757 | 98 ft | 0 kts | 171° |
| 2026-05-05 09:20 | 51.47461 | -0.46757 | 98 ft | 0 kts | 171° |
| 2026-05-05 09:21 | 51.47431 | -0.46745 | 98 ft | 7 kts | 166° |
| 2026-05-05 09:21 | 51.47357 | -0.46726 | 98 ft | 13 kts | 178° |
| 2026-05-05 09:21 | 51.47261 | -0.46746 | 98 ft | 13 kts | 220° |
| 2026-05-05 09:21 | 51.47199 | -0.46858 | 98 ft | 14 kts | 197° |
| 2026-05-05 09:22 | 51.47082 | -0.46862 | 98 ft | 19 kts | 180° |
| 2026-05-05 09:22 | 51.46950 | -0.46863 | 98 ft | 18 kts | 180° |
| 2026-05-05 09:22 | 51.46832 | -0.46861 | 98 ft | 14 kts | 180° |
| 2026-05-05 09:22 | 51.46736 | -0.46861 | 98 ft | 13 kts | 180° |
| 2026-05-05 09:23 | 51.46664 | -0.46927 | 98 ft | 13 kts | 252° |
| 2026-05-05 09:23 | 51.46658 | -0.47072 | 98 ft | 13 kts | 272° |
| 2026-05-05 09:23 | 51.46656 | -0.47219 | 98 ft | 13 kts | 270° |
| 2026-05-05 09:23 | 51.46655 | -0.47367 | 98 ft | 13 kts | 269° |
| 2026-05-05 09:24 | 51.46654 | -0.47514 | 98 ft | 13 kts | 270° |
| 2026-05-05 09:24 | 51.46654 | -0.47664 | 98 ft | 13 kts | 271° |
| 2026-05-05 09:24 | 51.46655 | -0.47812 | 98 ft | 13 kts | 270° |
| 2026-05-05 09:24 | 51.46654 | -0.47962 | 98 ft | 13 kts | 270° |
| 2026-05-05 09:25 | 51.46653 | -0.48113 | 98 ft | 13 kts | 270° |
| 2026-05-05 09:25 | 51.46652 | -0.48263 | 98 ft | 13 kts | 269° |
| 2026-05-05 09:25 | 51.46651 | -0.48415 | 98 ft | 13 kts | 270° |
| 2026-05-05 09:25 | 51.46650 | -0.48565 | 98 ft | 13 kts | 269° |
| 2026-05-05 09:26 | 51.46650 | -0.48658 | 98 ft | 4 kts | 270° |
| 2026-05-05 09:26 | 51.46648 | -0.48706 | 98 ft | 4 kts | 262° |
| 2026-05-05 09:26 | 51.46630 | -0.48745 | 98 ft | 5 kts | 207° |
| 2026-05-05 09:26 | 51.46611 | -0.48759 | 98 ft | 0 kts | 203° |
| 2026-05-05 09:29 | 51.46607 | -0.48762 | 98 ft | 3 kts | 203° |
| 2026-05-05 09:29 | 51.46565 | -0.48782 | 98 ft | 7 kts | 189° |
| 2026-05-05 09:29 | 51.46513 | -0.48768 | 98 ft | 8 kts | 153° |
| 2026-05-05 09:30 | 51.46480 | -0.48699 | 98 ft | 6 kts | 106° |
| 2026-05-05 09:30 | 51.46479 | -0.48677 | 98 ft | 0 kts | 90° |
| 2026-05-05 09:30 | 51.46478 | -0.48666 | 98 ft | 4 kts | 91° |
| 2026-05-05 09:31 | 51.46479 | -0.48437 | 98 ft | 50 kts | 90° |
| 2026-05-05 09:31 | 51.46482 | -0.47510 | 98 ft | 113 kts | 90° |
| 2026-05-05 09:31 | 51.46487 | -0.45970 | 99 ft | 164 kts | 88° |
| 2026-05-05 09:31 | 51.46498 | -0.43996 | 401 ft | 179 kts | 88° |
| 2026-05-05 09:32 | 51.46490 | -0.42027 | 1063 ft | 179 kts | 97° |
| 2026-05-05 09:32 | 51.45956 | -0.40303 | 1612 ft | 182 kts | 134° |
| 2026-05-05 09:32 | 51.44762 | -0.39378 | 1714 ft | 205 kts | 173° |
| 2026-05-05 09:32 | 51.43322 | -0.39786 | 1831 ft | 224 kts | 209° |
| 2026-05-05 09:33 | 51.42018 | -0.41310 | 2023 ft | 239 kts | 221° |
| 2026-05-05 09:33 | 51.40733 | -0.43022 | 2464 ft | 244 kts | 221° |
| 2026-05-05 09:33 | 51.39416 | -0.44780 | 2954 ft | 246 kts | 221° |
| 2026-05-05 09:33 | 51.38109 | -0.46527 | 3435 ft | 249 kts | 221° |
| 2026-05-05 09:34 | 51.36777 | -0.48313 | 3943 ft | 249 kts | 221° |
| 2026-05-05 09:34 | 51.35485 | -0.50128 | 4422 ft | 250 kts | 230° |
| 2026-05-05 09:34 | 51.34659 | -0.52579 | 4654 ft | 260 kts | 261° |
| 2026-05-05 09:34 | 51.34729 | -0.55495 | 4830 ft | 268 kts | 293° |
| 2026-05-05 09:35 | 51.35503 | -0.58171 | 5368 ft | 268 kts | 300° |
| 2026-05-05 09:35 | 51.37221 | -0.63499 | 6504 ft | 272 kts | 300° |
| 2026-05-05 09:35 | 51.38085 | -0.66176 | 7047 ft | 274 kts | 299° |
| 2026-05-05 09:36 | 51.38953 | -0.68869 | 7582 ft | 276 kts | 298° |
| 2026-05-05 09:36 | 51.39841 | -0.71627 | 8113 ft | 279 kts | 298° |
| 2026-05-05 09:36 | 51.40725 | -0.74372 | 8617 ft | 281 kts | 298° |
| 2026-05-05 09:36 | 51.41625 | -0.77175 | 9135 ft | 283 kts | 298° |
| 2026-05-05 09:37 | 51.42532 | -0.80001 | 9659 ft | 285 kts | 298° |
| 2026-05-05 09:37 | 51.43439 | -0.82830 | 10135 ft | 288 kts | 298° |
| 2026-05-05 09:37 | 51.44381 | -0.85769 | 10316 ft | 303 kts | 298° |
| 2026-05-05 09:37 | 51.45362 | -0.88834 | 10449 ft | 318 kts | 298° |
| 2026-05-05 09:38 | 51.46396 | -0.92069 | 10585 ft | 333 kts | 298° |
| 2026-05-05 09:38 | 51.47483 | -0.95476 | 10712 ft | 348 kts | 298° |
| 2026-05-05 09:38 | 51.48608 | -0.99007 | 10935 ft | 359 kts | 298° |
| 2026-05-05 09:38 | 51.49753 | -1.02607 | 11380 ft | 363 kts | 298° |
| 2026-05-05 09:39 | 51.50907 | -1.06242 | 11881 ft | 365 kts | 298° |
| 2026-05-05 09:39 | 51.52057 | -1.09871 | 12405 ft | 366 kts | 298° |
| 2026-05-05 09:39 | 51.53212 | -1.13520 | 12874 ft | 369 kts | 298° |
| 2026-05-05 09:39 | 51.54383 | -1.17225 | 13365 ft | 371 kts | 298° |
| 2026-05-05 09:40 | 51.55568 | -1.20981 | 13835 ft | 374 kts | 298° |
| 2026-05-05 09:40 | 51.56745 | -1.24716 | 14271 ft | 377 kts | 298° |
| 2026-05-05 09:40 | 51.57930 | -1.28486 | 14699 ft | 380 kts | 298° |
| 2026-05-05 09:40 | 51.59137 | -1.32328 | 15148 ft | 383 kts | 297° |
| 2026-05-05 09:41 | 51.60346 | -1.36183 | 15537 ft | 387 kts | 297° |
| 2026-05-05 09:41 | 51.61560 | -1.40061 | 15977 ft | 390 kts | 297° |
| 2026-05-05 09:41 | 51.62785 | -1.43978 | 16413 ft | 392 kts | 297° |
| 2026-05-05 09:41 | 51.64016 | -1.47926 | 16795 ft | 396 kts | 297° |
| 2026-05-05 09:42 | 51.65265 | -1.51936 | 17184 ft | 399 kts | 297° |
| 2026-05-05 09:42 | 51.66511 | -1.55940 | 17586 ft | 402 kts | 296° |
| 2026-05-05 09:42 | 51.67773 | -1.60005 | 17983 ft | 405 kts | 296° |
| 2026-05-05 09:42 | 51.69034 | -1.64076 | 18381 ft | 407 kts | 296° |
| 2026-05-05 09:43 | 51.70086 | -1.68303 | 18752 ft | 409 kts | 285° |
| 2026-05-05 09:43 | 51.70689 | -1.72815 | 19105 ft | 411 kts | 277° |
| 2026-05-05 09:43 | 51.71046 | -1.77361 | 19496 ft | 413 kts | 275° |
| 2026-05-05 09:43 | 51.71387 | -1.81977 | 19761 ft | 418 kts | 275° |
| 2026-05-05 09:44 | 51.71728 | -1.86658 | 19990 ft | 424 kts | 275° |
| 2026-05-05 09:44 | 51.72069 | -1.91382 | 20348 ft | 426 kts | 275° |
| 2026-05-05 09:44 | 51.72413 | -1.96183 | 20732 ft | 428 kts | 275° |
| 2026-05-05 09:44 | 51.72750 | -2.00929 | 21132 ft | 429 kts | 275° |
| 2026-05-05 09:45 | 51.73087 | -2.05710 | 21471 ft | 431 kts | 275° |
| 2026-05-05 09:45 | 51.73421 | -2.10479 | 21802 ft | 434 kts | 275° |